Time;durP1;ratioP1;P1;durP2;ratioP2;P2;SDS_P1;SDS_P2;PMS_P1;PMS_P2;Temp;Humidity;BMP_temperature;BMP_pressure;BME280_temperature;BME280_humidity;BME280_pressure;Samples;Min_cycle;Max_cycle;Signal;HPM_P1;HPM_P2
2023/03/06 00:02:15;;;;;;;12.63;8.05;;;;;;;3.05;51.65;94370.88;5104595;28;20500;-78
2023/03/06 00:04:41;;;;;;;16.67;9.38;;;;;;;3.09;51.71;94383.22;5104097;28;20036;-77
2023/03/06 00:07:06;;;;;;;13.05;9.18;;;;;;;3.13;51.52;94381.25;5104787;28;20028;-77
2023/03/06 00:09:32;;;;;;;13.25;7.93;;;;;;;3.07;51.61;94374.72;5104137;28;20027;-77
2023/03/06 00:11:57;;;;;;;14.38;8.85;;;;;;;3.06;51.83;94375.13;5104737;28;20031;-77
2023/03/06 00:14:23;;;;;;;14.65;9.23;;;;;;;3.03;51.68;94370.47;5105858;28;20028;-77
2023/03/06 00:16:48;;;;;;;20.70;9.07;;;;;;;3.04;51.72;94372.81;5104253;28;20039;-78
2023/03/06 00:19:13;;;;;;;12.50;8.45;;;;;;;3.06;51.83;94377.84;5114387;28;20034;-79
2023/03/06 00:21:40;;;;;;;15.43;9.40;;;;;;;3.00;52.01;94368.56;5104582;28;20062;-77
2023/03/06 00:24:07;;;;;;;15.30;9.07;;;;;;;2.90;52.33;94375.63;5104400;28;20026;-79
2023/03/06 00:26:33;;;;;;;15.30;9.07;;;;;;;2.85;52.59;94370.63;5103741;28;20031;-77
2023/03/06 00:28:59;;;;;;;12.68;8.93;;;;;;;2.86;52.58;94377.59;5087619;28;20118;-77
2023/03/06 00:31:24;;;;;;;12.90;8.75;;;;;;;2.87;52.71;94365.59;5086998;28;20028;-78
2023/03/06 00:33:49;;;;;;;13.95;9.23;;;;;;;2.96;52.45;94373.25;5087401;28;20039;-77
2023/03/06 00:36:15;;;;;;;15.55;9.52;;;;;;;2.91;52.48;94366.31;5103842;28;20035;-77
2023/03/06 00:38:40;;;;;;;16.50;9.13;;;;;;;2.97;52.23;94364.72;5103895;28;20430;-79
2023/03/06 00:41:10;;;;;;;13.05;8.20;;;;;;;3.04;52.01;94374.72;5086808;28;20058;-78
2023/03/06 00:43:36;;;;;;;14.73;9.10;;;;;;;3.03;51.77;94370.47;5103498;28;20023;-77
2023/03/06 00:46:05;;;;;;;16.60;9.25;;;;;;;3.03;52.07;94365.03;5104132;28;20591;-77
2023/03/06 00:48:31;;;;;;;12.50;8.30;;;;;;;3.01;52.19;94362.75;5103595;28;20032;-78
2023/03/06 00:50:57;;;;;;;13.90;8.70;;;;;;;3.02;51.99;94364.28;5103866;28;20032;-79
2023/03/06 00:53:22;;;;;;;16.38;8.90;;;;;;;3.14;51.62;94365.72;5103897;28;20151;-77
2023/03/06 00:55:49;;;;;;;12.63;7.95;;;;;;;3.23;51.39;94359.81;5086540;28;20027;-78
2023/03/06 00:58:14;;;;;;;13.80;8.43;;;;;;;3.33;51.04;94364.38;5103757;28;20031;-78
2023/03/06 01:00:40;;;;;;;15.63;9.57;;;;;;;3.35;50.82;94362.03;5103232;28;20110;-79
2023/03/06 01:03:05;;;;;;;16.67;8.80;;;;;;;3.38;50.72;94370.16;5103716;28;20040;-78
2023/03/06 01:05:34;;;;;;;13.90;8.27;;;;;;;3.39;50.65;94365.50;5086272;28;20039;-77
2023/03/06 01:07:59;;;;;;;14.38;9.02;;;;;;;3.39;50.61;94362.78;5105288;28;20034;-75
2023/03/06 01:10:26;;;;;;;16.63;8.93;;;;;;;3.43;50.51;94358.06;5103360;28;20028;-78
2023/03/06 01:12:51;;;;;;;13.85;8.05;;;;;;;3.50;50.31;94354.47;5104880;28;20486;-78
2023/03/06 01:15:17;;;;;;;16.17;8.93;;;;;;;3.50;50.35;94360.72;5104745;28;20028;-77
2023/03/06 01:17:42;;;;;;;11.90;8.75;;;;;;;3.51;50.34;94359.53;5103303;28;20110;-77
2023/03/06 01:20:12;;;;;;;17.15;9.25;;;;;;;3.47;50.48;94354.13;5104680;28;20106;-77
2023/03/06 01:22:37;;;;;;;15.75;9.20;;;;;;;3.48;50.47;94352.19;5103343;28;20110;-78
2023/03/06 01:25:03;;;;;;;16.92;9.27;;;;;;;3.51;50.51;94350.59;5109408;28;20122;-78
2023/03/06 01:27:28;;;;;;;14.05;9.07;;;;;;;3.51;50.35;94356.03;5103608;28;20534;-76
2023/03/06 01:29:54;;;;;;;16.23;8.73;;;;;;;3.49;50.22;94352.94;5102991;28;20114;-79
2023/03/06 01:32:20;;;;;;;14.13;8.93;;;;;;;3.53;50.20;94356.41;5086394;28;20024;-77
2023/03/06 01:34:45;;;;;;;14.32;9.20;;;;;;;3.51;50.13;94354.09;5102995;28;20080;-77
2023/03/06 01:37:11;;;;;;;13.80;8.85;;;;;;;3.54;50.14;94355.22;5103242;28;20024;-79
2023/03/06 01:39:36;;;;;;;14.35;8.75;;;;;;;3.54;50.31;94356.00;5102887;28;20047;-78
2023/03/06 01:42:02;;;;;;;13.27;8.45;;;;;;;3.51;50.37;94354.09;5103063;28;20055;-77
2023/03/06 01:44:27;;;;;;;15.30;9.85;;;;;;;3.51;50.40;94348.66;5102961;28;20634;-79
2023/03/06 01:46:53;;;;;;;13.00;8.73;;;;;;;3.44;50.71;94346.00;5103491;28;20451;-77
2023/03/06 01:49:20;;;;;;;13.32;8.88;;;;;;;3.44;50.72;94352.22;5102794;28;20039;-79
2023/03/06 01:51:55;;;;;;;12.60;8.05;;;;;;;3.33;50.60;94326.34;5102964;28;20035;-77
2023/03/06 01:54:52;;;;;;;14.00;8.25;;;;;;;3.45;50.61;94348.34;5103116;28;20080;-77
2023/03/06 01:57:21;;;;;;;17.17;8.98;;;;;;;3.41;50.65;94355.75;5085728;28;20548;-77
2023/03/06 01:59:51;;;;;;;21.67;10.75;;;;;;;3.39;50.76;94352.66;5086101;28;20023;-78
2023/03/06 02:02:17;;;;;;;17.58;9.30;;;;;;;3.40;50.87;94348.00;5086334;28;20032;-79
2023/03/06 02:04:43;;;;;;;21.08;10.15;;;;;;;3.44;50.70;94346.00;5102877;28;20043;-77
2023/03/06 02:07:08;;;;;;;14.93;9.85;;;;;;;3.40;50.83;94351.50;5103626;28;20457;-79
2023/03/06 02:09:35;;;;;;;16.60;9.48;;;;;;;3.39;50.97;94352.66;5085851;28;20405;-78
2023/03/06 02:12:02;;;;;;;11.80;8.57;;;;;;;3.34;51.33;94352.34;5104269;28;20120;-78
2023/03/06 02:14:28;;;;;;;14.18;8.40;;;;;;;3.28;51.48;94353.97;5089148;28;20032;-78
2023/03/06 02:16:56;;;;;;;16.88;9.65;;;;;;;3.23;51.68;94357.09;5106831;28;20457;-79
2023/03/06 02:19:57;;;;;;;14.02;9.68;;;;;;;3.19;51.93;94355.19;5106385;28;20502;-79
2023/03/06 02:22:24;;;;;;;16.48;9.35;;;;;;;3.15;51.93;94348.25;5093433;28;20035;-78
2023/03/06 02:24:53;;;;;;;14.85;9.68;;;;;;;3.16;51.96;94360.69;5106351;28;20512;-79
2023/03/06 02:27:18;;;;;;;16.40;9.20;;;;;;;3.15;51.78;94343.59;5109059;28;20054;-77
2023/03/06 02:29:44;;;;;;;16.02;9.25;;;;;;;3.17;51.86;94359.50;5109587;28;20458;-77
2023/03/06 02:32:09;;;;;;;15.95;8.95;;;;;;;3.08;52.20;94359.19;5090889;28;20027;-79
2023/03/06 02:34:45;;;;;;;15.43;9.63;;;;;;;3.06;52.45;94353.38;5106470;28;20031;-76
2023/03/06 02:37:10;;;;;;;19.98;9.70;;;;;;;3.00;52.35;94352.28;5106130;28;20027;-77
2023/03/06 02:39:41;;;;;;;16.00;10.15;;;;;;;2.99;52.45;94365.09;5106315;28;20027;-78
2023/03/06 02:42:06;;;;;;;16.20;9.10;;;;;;;2.99;52.26;94367.03;5105925;28;20139;-79
2023/03/06 02:44:32;;;;;;;17.25;9.75;;;;;;;2.97;52.18;94361.22;5088978;28;20126;-78
2023/03/06 02:46:58;;;;;;;15.32;9.18;;;;;;;2.97;51.89;94359.28;5088868;28;20038;-77
2023/03/06 02:49:23;;;;;;;14.15;8.77;;;;;;;3.00;51.90;94368.56;5105646;28;20027;-78
2023/03/06 02:51:49;;;;;;;16.25;9.23;;;;;;;2.96;51.85;94362.41;5106318;28;20034;-77
2023/03/06 02:54:17;;;;;;;16.77;9.10;;;;;;;2.99;51.75;94365.09;5105304;28;20032;-79
2023/03/06 02:56:43;;;;;;;15.05;9.82;;;;;;;2.99;51.65;94356.19;5106179;28;20020;-78
2023/03/06 02:59:08;;;;;;;14.65;9.25;;;;;;;3.00;51.56;94355.78;5105520;28;20051;-78
2023/03/06 03:01:34;;;;;;;16.17;8.80;;;;;;;3.05;51.39;94366.19;5088667;28;20039;-78
2023/03/06 03:03:59;;;;;;;15.32;9.50;;;;;;;3.06;51.24;94361.53;5106200;28;20032;-77
2023/03/06 03:06:25;;;;;;;14.02;9.55;;;;;;;3.10;51.23;94354.13;5088960;28;20424;-77
2023/03/06 03:08:50;;;;;;;16.05;8.73;;;;;;;3.07;51.23;94363.84;5112181;28;20564;-77
2023/03/06 03:11:16;;;;;;;12.80;8.85;;;;;;;3.23;50.93;94359.81;5109092;28;20056;-78
2023/03/06 03:13:41;;;;;;;15.45;9.25;;;;;;;3.30;50.51;94357.81;5107483;28;20495;-77
2023/03/06 03:16:09;;;;;;;14.50;8.82;;;;;;;3.40;50.65;94364.31;5105940;28;20409;-78
2023/03/06 03:18:35;;;;;;;15.63;9.60;;;;;;;3.43;50.74;94356.09;5089093;28;20043;-77
2023/03/06 03:21:01;;;;;;;15.15;9.10;;;;;;;3.41;50.74;94369.34;5105829;28;20108;-78
2023/03/06 03:23:26;;;;;;;14.52;8.63;;;;;;;3.47;50.52;94356.84;5104556;28;20165;-79
2023/03/06 03:25:52;;;;;;;15.63;9.02;;;;;;;3.44;50.44;94357.66;5088739;28;20046;-77
2023/03/06 03:28:18;;;;;;;17.08;8.75;;;;;;;3.47;50.62;94365.00;5105063;28;20039;-78
2023/03/06 03:30:44;;;;;;;14.95;8.90;;;;;;;3.46;51.15;94360.75;5105782;28;20080;-77
2023/03/06 03:33:10;;;;;;;15.55;9.73;;;;;;;3.42;51.78;94359.22;5087828;28;20043;-76
2023/03/06 03:35:36;;;;;;;18.42;11.15;;;;;;;3.46;52.03;94371.59;5114818;28;20042;-78
2023/03/06 03:38:02;;;;;;;21.88;11.32;;;;;;;3.44;52.43;94367.75;5106686;28;20490;-78
2023/03/06 03:40:27;;;;;;;18.42;10.48;;;;;;;3.37;52.77;94368.59;5105290;28;20043;-78
2023/03/06 03:42:52;;;;;;;17.58;9.43;;;;;;;3.30;52.82;94368.66;5105328;28;20751;-76
2023/03/06 03:45:18;;;;;;;17.85;11.07;;;;;;;3.28;52.87;94371.03;5104486;28;20038;-77
2023/03/06 03:47:43;;;;;;;19.75;11.18;;;;;;;3.29;53.02;94364.41;5106734;28;20035;-77
2023/03/06 03:50:09;;;;;;;18.67;11.07;;;;;;;3.33;52.78;94373.31;5104249;28;20043;-77
2023/03/06 03:52:35;;;;;;;18.20;11.70;;;;;;;3.33;52.80;94378.75;5105153;28;20123;-77
2023/03/06 03:55:00;;;;;;;17.20;11.77;;;;;;;3.28;53.07;94371.03;5087862;28;20530;-77
2023/03/06 03:57:26;;;;;;;19.35;11.77;;;;;;;3.31;53.02;94381.06;5087458;28;20031;-78
2023/03/06 03:59:51;;;;;;;16.88;10.80;;;;;;;3.22;53.29;94377.31;5105103;28;20020;-79
2023/03/06 04:02:17;;;;;;;15.73;10.55;;;;;;;3.07;53.79;94380.13;5106104;28;20015;-77
2023/03/06 04:04:42;;;;;;;15.85;10.52;;;;;;;2.94;53.81;94370.97;5104947;28;20558;-79
2023/03/06 04:07:08;;;;;;;17.45;10.80;;;;;;;2.84;54.40;94369.88;5104541;28;20386;-79
2023/03/06 04:09:33;;;;;;;14.80;8.98;;;;;;;2.74;54.57;94368.00;5104875;28;20032;-78
2023/03/06 04:11:59;;;;;;;19.20;9.88;;;;;;;2.59;54.85;94369.31;5104181;28;20092;-78
2023/03/06 04:14:24;;;;;;;17.45;10.88;;;;;;;2.49;55.59;94367.44;5087243;28;20023;-78
2023/03/06 04:16:50;;;;;;;18.20;9.07;;;;;;;2.43;55.53;94380.66;5087703;28;20102;-78
2023/03/06 04:19:15;;;;;;;17.75;10.20;;;;;;;2.42;55.76;94375.63;5087276;28;20024;-78
2023/03/06 04:21:41;;;;;;;17.48;10.23;;;;;;;2.39;55.61;94371.75;5087401;28;20363;-78
2023/03/06 04:24:06;;;;;;;17.15;10.48;;;;;;;2.44;55.49;94376.00;5104458;28;20027;-76
2023/03/06 04:26:32;;;;;;;17.15;10.32;;;;;;;2.50;55.33;94380.59;5104021;28;20495;-76
2023/03/06 04:28:58;;;;;;;17.52;10.00;;;;;;;2.64;54.99;94390.59;5103951;28;20035;-77
2023/03/06 04:31:23;;;;;;;18.48;10.75;;;;;;;2.65;54.57;94387.47;5104587;28;20034;-77
2023/03/06 04:33:49;;;;;;;16.23;9.50;;;;;;;2.79;54.35;94385.81;5103997;28;20203;-77
2023/03/06 04:36:31;;;;;;;17.15;9.68;;;;;;;2.91;54.29;94396.19;5103267;28;20020;-75
2023/03/06 04:38:56;;;;;;;16.33;9.60;;;;;;;3.03;53.74;94401.13;5104150;28;20386;-76
2023/03/06 04:41:22;;;;;;;17.75;10.73;;;;;;;3.14;53.46;94392.88;5108527;28;20054;-76
2023/03/06 04:43:47;;;;;;;18.67;10.65;;;;;;;3.14;53.43;94396.38;5104385;28;20446;-76
2023/03/06 04:46:13;;;;;;;20.90;12.07;;;;;;;3.23;53.11;94404.06;5103792;28;20448;-76
2023/03/06 04:48:38;;;;;;;19.38;12.13;;;;;;;3.20;53.04;94396.69;5104256;28;20033;-75
2023/03/06 04:51:04;;;;;;;15.65;10.25;;;;;;;3.26;53.15;94403.25;5105039;28;20562;-76
2023/03/06 04:53:31;;;;;;;19.13;10.70;;;;;;;3.26;53.11;94397.81;5086985;28;20498;-77
2023/03/06 04:55:57;;;;;;;16.35;9.80;;;;;;;3.37;52.51;94401.19;5103945;28;20374;-76
2023/03/06 04:58:22;;;;;;;17.60;10.07;;;;;;;3.41;52.70;94395.72;5103255;28;20026;-75
2023/03/06 05:00:48;;;;;;;16.85;10.88;;;;;;;3.45;52.34;94391.81;5103997;28;20035;-75
2023/03/06 05:03:13;;;;;;;16.27;9.85;;;;;;;3.57;52.28;94404.13;5104799;28;20107;-75
2023/03/06 05:05:39;;;;;;;16.80;10.43;;;;;;;3.60;52.30;94405.25;5086693;28;20529;-76
2023/03/06 05:08:05;;;;;;;29.85;13.35;;;;;;;3.65;52.03;94402.84;5102993;28;20059;-76
2023/03/06 05:10:31;;;;;;;23.13;14.82;;;;;;;3.65;51.76;94402.09;5103281;28;20065;-76
2023/03/06 05:12:56;;;;;;;28.48;15.98;;;;;;;3.66;51.94;94400.91;5086298;28;20024;-76
2023/03/06 05:15:22;;;;;;;27.30;14.32;;;;;;;3.80;51.73;94403.47;5103355;28;20031;-76
2023/03/06 05:17:47;;;;;;;21.67;13.02;;;;;;;3.76;51.58;94400.00;5086834;28;20027;-76
2023/03/06 05:20:14;;;;;;;20.90;11.48;;;;;;;3.91;51.56;94406.06;5103286;28;20023;-76
2023/03/06 05:22:39;;;;;;;18.73;11.88;;;;;;;3.97;51.40;94388.13;5103736;28;20028;-77
2023/03/06 05:25:06;;;;;;;21.42;12.10;;;;;;;3.99;51.25;94404.81;5102960;28;20477;-77
2023/03/06 05:27:32;;;;;;;21.23;12.32;;;;;;;4.03;51.41;94402.03;5103633;28;20516;-77
2023/03/06 05:29:57;;;;;;;19.13;12.40;;;;;;;4.07;51.34;94403.56;5103107;28;20028;-76
2023/03/06 05:32:22;;;;;;;20.67;12.88;;;;;;;4.15;51.33;94402.28;5086477;28;20463;-76
2023/03/06 05:34:48;;;;;;;21.98;12.43;;;;;;;4.13;51.10;94410.09;5103286;28;20026;-76
2023/03/06 05:37:14;;;;;;;23.30;12.50;;;;;;;4.10;51.10;94400.00;5085993;28;20044;-76
2023/03/06 05:39:39;;;;;;;21.23;13.38;;;;;;;4.13;51.09;94409.28;5104784;28;20047;-76
2023/03/06 05:42:05;;;;;;;20.65;12.68;;;;;;;4.14;50.89;94408.13;5085713;28;20168;-76
2023/03/06 05:44:34;;;;;;;20.98;12.45;;;;;;;4.19;51.00;94413.13;5086540;28;20039;-77
2023/03/06 05:47:00;;;;;;;17.92;11.10;;;;;;;4.29;50.50;94420.34;5093789;28;20019;-76
2023/03/06 05:49:26;;;;;;;23.35;13.00;;;;;;;4.30;50.59;94418.41;5107990;28;20046;-77
2023/03/06 05:51:51;;;;;;;20.30;12.52;;;;;;;4.36;50.68;94424.94;5107178;28;20106;-76
2023/03/06 05:54:16;;;;;;;25.02;13.05;;;;;;;4.40;50.49;94431.09;5107379;28;20472;-76
2023/03/06 05:56:42;;;;;;;21.48;13.43;;;;;;;4.49;50.17;94429.44;5107147;28;20059;-77
2023/03/06 05:59:07;;;;;;;17.50;11.68;;;;;;;4.52;49.93;94430.53;5108350;28;20032;-76
2023/03/06 06:01:33;;;;;;;19.55;12.55;;;;;;;4.61;49.60;94430.81;5107351;28;20523;-75
2023/03/06 06:03:58;;;;;;;18.00;11.40;;;;;;;4.65;49.32;94441.66;5106687;28;20032;-77
2023/03/06 06:06:24;;;;;;;19.65;12.13;;;;;;;4.75;48.99;94429.84;5107438;28;20116;-75
2023/03/06 06:08:49;;;;;;;21.02;11.73;;;;;;;4.76;48.75;94429.44;5106330;28;20132;-78
2023/03/06 06:11:17;;;;;;;20.05;11.35;;;;;;;4.90;48.47;94433.13;5090115;28;20132;-76
2023/03/06 06:13:42;;;;;;;20.00;12.40;;;;;;;4.98;48.35;94448.94;5106679;28;20031;-77
2023/03/06 06:16:10;;;;;;;24.25;12.85;;;;;;;5.01;48.17;94442.69;5106842;28;20023;-76
2023/03/06 06:18:36;;;;;;;22.38;11.88;;;;;;;5.13;47.79;94441.31;5107057;28;20023;-77
2023/03/06 06:21:09;;;;;;;19.05;11.35;;;;;;;5.22;47.58;94451.72;5089416;28;20034;-77
2023/03/06 06:23:34;;;;;;;25.25;12.65;;;;;;;5.24;47.35;94454.78;5107371;28;20027;-78
2023/03/06 06:26:02;;;;;;;18.25;11.50;;;;;;;5.35;46.97;94452.66;5088893;28;20129;-76
2023/03/06 06:28:28;;;;;;;19.05;12.57;;;;;;;5.46;47.02;94449.75;5090026;28;20023;-76
2023/03/06 06:30:54;;;;;;;18.67;11.75;;;;;;;5.57;46.24;94456.56;5106321;28;20024;-77
2023/03/06 06:33:19;;;;;;;17.98;12.10;;;;;;;5.55;46.27;94456.19;5092115;28;20116;-79
2023/03/06 06:35:45;;;;;;;18.35;12.18;;;;;;;5.57;46.32;94461.25;5110899;28;20028;-78
2023/03/06 06:38:10;;;;;;;23.20;13.93;;;;;;;5.58;46.14;94457.34;5110279;28;20118;-77
2023/03/06 06:40:36;;;;;;;21.92;14.15;;;;;;;5.72;46.10;94457.06;5106923;28;20131;-77
2023/03/06 06:43:04;;;;;;;24.08;14.07;;;;;;;5.81;45.92;94465.50;5105972;28;20262;-80
2023/03/06 06:45:29;;;;;;;22.58;13.25;;;;;;;5.83;45.93;94467.78;5107107;28;20035;-77
2023/03/06 06:47:54;;;;;;;22.95;12.70;;;;;;;5.93;45.77;94466.09;5088765;28;20315;-77
2023/03/06 06:50:20;;;;;;;21.77;13.27;;;;;;;6.05;45.48;94463.53;5107990;28;20119;-76
2023/03/06 06:52:45;;;;;;;21.67;12.05;;;;;;;6.08;45.10;94472.84;5108416;28;20035;-77
2023/03/06 06:55:12;;;;;;;20.55;11.88;;;;;;;6.06;45.16;94465.06;5088778;28;20418;-76
2023/03/06 06:57:39;;;;;;;18.85;11.80;;;;;;;6.12;45.11;94468.84;5106093;28;20061;-76
2023/03/06 07:00:05;;;;;;;20.25;11.13;;;;;;;6.13;44.70;94458.69;5107325;28;20020;-76
2023/03/06 07:02:31;;;;;;;17.65;10.90;;;;;;;6.29;44.32;94474.38;5106521;28;20035;-78
2023/03/06 07:04:57;;;;;;;15.75;10.80;;;;;;;6.26;44.15;94467.03;5088539;28;20089;-77
2023/03/06 07:07:22;;;;;;;19.90;12.18;;;;;;;6.36;44.22;94476.97;5106383;28;20055;-76
2023/03/06 07:09:48;;;;;;;21.02;11.68;;;;;;;6.42;44.20;94474.50;5105506;28;20114;-75
2023/03/06 07:12:13;;;;;;;19.98;11.35;;;;;;;6.52;43.81;94470.78;5105860;28;20032;-77
2023/03/06 07:14:40;;;;;;;17.55;11.27;;;;;;;6.64;43.46;94479.09;5106022;28;20027;-77
2023/03/06 07:17:05;;;;;;;17.40;10.63;;;;;;;6.74;43.13;94471.13;5088313;28;20027;-76
2023/03/06 07:19:31;;;;;;;15.18;9.75;;;;;;;6.83;43.01;94476.78;5105833;28;20032;-77
2023/03/06 07:21:58;;;;;;;17.75;11.13;;;;;;;6.87;43.06;94475.50;5087899;28;20031;-77
2023/03/06 07:24:24;;;;;;;16.77;10.50;;;;;;;6.96;42.96;94482.34;5106099;28;20098;-77
2023/03/06 07:26:50;;;;;;;15.98;10.32;;;;;;;7.02;42.70;94477.94;5106327;27;20142;-78
2023/03/06 07:29:15;;;;;;;17.17;10.32;;;;;;;7.12;42.49;94476.91;5088743;28;20588;-78
2023/03/06 07:31:41;;;;;;;15.57;10.15;;;;;;;7.15;42.43;94470.59;5088452;28;20024;-77
2023/03/06 07:34:08;;;;;;;15.00;9.77;;;;;;;7.28;42.11;94478.88;5105192;28;20119;-78
2023/03/06 07:36:34;;;;;;;15.05;9.30;;;;;;;7.44;41.38;94473.41;5105280;28;20032;-77
2023/03/06 07:38:59;;;;;;;15.98;8.73;;;;;;;7.46;39.97;94473.78;5106039;28;20594;-76
2023/03/06 07:41:25;;;;;;;11.77;7.25;;;;;;;7.39;40.01;94473.94;5105317;28;20130;-76
2023/03/06 07:43:50;;;;;;;18.70;9.48;;;;;;;7.25;40.27;94468.81;5104595;28;20023;-76
2023/03/06 07:46:16;;;;;;;10.90;8.25;;;;;;;7.35;40.25;94476.78;5105216;28;20032;-77
2023/03/06 07:48:41;;;;;;;12.82;7.53;;;;;;;7.39;39.87;94476.66;5104551;28;20027;-75
2023/03/06 07:51:14;;;;;;;13.43;8.25;;;;;;;7.49;39.81;94472.91;5104890;28;20028;-76
2023/03/06 07:53:39;;;;;;;12.60;8.57;;;;;;;7.58;39.41;94475.81;5105591;28;20032;-78
2023/03/06 07:56:09;;;;;;;12.65;6.93;;;;;;;7.71;39.54;94478.63;5106003;28;20269;-76
2023/03/06 07:58:36;;;;;;;12.70;7.88;;;;;;;7.86;39.11;94476.31;5106089;28;20107;-77
2023/03/06 08:01:06;;;;;;;14.00;8.27;;;;;;;8.10;38.91;94477.63;5087374;28;20020;-77
2023/03/06 08:03:32;;;;;;;12.80;8.25;;;;;;;8.16;38.80;94480.59;5105540;28;20031;-75
2023/03/06 08:06:12;;;;;;;15.23;8.73;;;;;;;8.37;38.59;94477.31;5086940;28;20054;-76
2023/03/06 08:08:39;;;;;;;12.57;7.80;;;;;;;8.58;38.01;94483.38;5104737;28;20849;-76
2023/03/06 08:11:06;;;;;;;14.30;7.60;;;;;;;8.77;37.99;94480.50;5086781;28;20028;-77
2023/03/06 08:13:31;;;;;;;10.85;7.25;;;;;;;9.00;37.38;94481.38;5104229;28;20421;-78
2023/03/06 08:15:58;;;;;;;15.40;8.23;;;;;;;9.26;37.13;94482.94;5104995;28;20027;-77
2023/03/06 08:18:24;;;;;;;12.77;8.75;;;;;;;9.22;36.31;94474.03;5103908;28;20050;-76
2023/03/06 08:20:50;;;;;;;13.38;8.63;;;;;;;9.27;36.39;94472.72;5105131;28;20024;-77
2023/03/06 08:23:16;;;;;;;15.60;8.73;;;;;;;9.49;36.41;94478.31;5103409;28;20038;-78
2023/03/06 08:25:41;;;;;;;13.57;8.65;;;;;;;9.71;36.35;94479.16;5104603;28;20516;-77
2023/03/06 08:28:07;;;;;;;17.98;9.70;;;;;;;9.94;35.69;94480.75;5087180;28;20024;-79
2023/03/06 08:30:32;;;;;;;20.30;9.88;;;;;;;10.29;35.70;94478.78;5104179;28;20019;-79
2023/03/06 08:32:58;;;;;;;16.52;9.55;;;;;;;10.68;34.86;94473.88;5087615;28;20383;-78
2023/03/06 08:35:25;;;;;;;14.45;9.18;;;;;;;11.13;34.08;94484.38;5103423;28;20034;-79
2023/03/06 08:37:50;;;;;;;15.93;9.40;;;;;;;11.46;33.25;94480.38;5104696;28;20473;-78
2023/03/06 08:40:16;;;;;;;16.08;9.82;;;;;;;11.61;33.02;94476.59;5104386;28;20063;-78
2023/03/06 08:42:41;;;;;;;16.60;8.80;;;;;;;11.96;32.83;94468.91;5104501;28;20054;-79
2023/03/06 08:45:07;;;;;;;13.90;9.50;;;;;;;12.32;31.56;94472.91;5103149;28;20601;-79
2023/03/06 08:47:34;;;;;;;12.70;8.85;;;;;;;12.64;31.57;94476.28;5086931;28;20059;-77
2023/03/06 08:49:59;;;;;;;13.88;8.95;;;;;;;12.97;31.21;94471.63;5087324;28;20023;-77
2023/03/06 08:52:25;;;;;;;16.23;10.00;;;;;;;13.39;30.03;94475.66;5103447;28;20022;-78
2023/03/06 08:54:50;;;;;;;12.85;8.82;;;;;;;13.70;29.69;94473.34;5087205;28;20449;-78
2023/03/06 08:57:15;;;;;;;13.57;8.55;;;;;;;14.08;29.20;94469.94;5103286;28;20028;-78
2023/03/06 08:59:41;;;;;;;21.00;11.63;;;;;;;14.25;28.46;94472.28;5104377;28;20098;-79
2023/03/06 09:02:10;;;;;;;18.42;10.48;;;;;;;14.18;28.70;94467.88;5108533;28;20059;-77
2023/03/06 09:04:36;;;;;;;13.15;8.93;;;;;;;14.31;29.02;94459.31;5104071;28;20022;-79
2023/03/06 09:07:01;;;;;;;16.10;10.30;;;;;;;14.59;28.39;94463.41;5105066;28;20019;-79
2023/03/06 09:09:26;;;;;;;15.80;9.38;;;;;;;14.96;27.98;94460.28;5103300;28;20055;-78
2023/03/06 09:11:52;;;;;;;15.60;9.77;;;;;;;15.27;27.93;94465.38;5087183;28;20469;-79
2023/03/06 09:14:17;;;;;;;15.40;9.57;;;;;;;15.40;27.38;94459.53;5102965;28;20024;-77
2023/03/06 09:16:43;;;;;;;12.90;8.98;;;;;;;15.77;27.08;94467.41;5104078;28;20502;-78
2023/03/06 09:19:09;;;;;;;11.65;9.10;;;;;;;16.24;26.75;94462.75;5086070;28;20072;-78
2023/03/06 09:21:34;;;;;;;15.02;10.70;;;;;;;16.60;26.27;94467.72;5103788;28;20023;-78
2023/03/06 09:24:00;;;;;;;12.82;8.43;;;;;;;16.95;25.93;94462.06;5104642;28;20024;-78
2023/03/06 09:26:25;;;;;;;14.00;9.43;;;;;;;17.50;25.87;94457.50;5103588;28;20412;-80
2023/03/06 09:28:51;;;;;;;17.42;10.60;;;;;;;17.62;25.26;94444.44;5086443;28;20370;-78
2023/03/06 09:31:18;;;;;;;16.80;10.43;;;;;;;17.92;25.36;94456.78;5103147;28;20023;-78
2023/03/06 09:33:43;;;;;;;20.27;12.63;;;;;;;18.06;24.60;94452.31;5104291;28;20512;-79
2023/03/06 09:36:16;;;;;;;22.00;12.52;;;;;;;18.25;24.56;94450.66;5085377;28;20032;-77
2023/03/06 09:38:42;;;;;;;18.25;10.30;;;;;;;18.47;24.25;94454.78;5103830;28;20023;-78
2023/03/06 09:41:12;;;;;;;16.27;10.30;;;;;;;18.83;23.71;94453.16;5103888;28;20050;-77
2023/03/06 09:43:40;;;;;;;17.25;9.75;;;;;;;19.08;23.38;94457.00;5103364;28;20122;-78
2023/03/06 09:46:12;;;;;;;13.88;9.23;;;;;;;19.24;23.22;94452.72;5086318;28;20032;-78
2023/03/06 09:48:53;;;;;;;13.82;9.02;;;;;;;19.25;23.33;94440.28;5104095;28;20026;-77
2023/03/06 09:51:23;;;;;;;13.68;9.20;;;;;;;19.51;23.03;94438.03;5087210;28;20028;-78
2023/03/06 09:54:08;;;;;;;13.13;9.13;;;;;;;20.06;22.35;94444.81;5102601;28;20030;-77
2023/03/06 09:56:34;;;;;;;13.32;8.90;;;;;;;19.93;22.88;94443.84;5103707;28;20055;-77
2023/03/06 09:59:19;;;;;;;14.30;9.25;;;;;;;20.25;21.92;94441.47;5106914;28;20370;-79
2023/03/06 10:01:56;;;;;;;14.30;9.23;;;;;;;20.33;22.31;94434.84;5109748;28;20030;-79
2023/03/06 10:04:33;;;;;;;15.20;10.20;;;;;;;20.60;22.02;94432.50;5108002;28;20474;-79
2023/03/06 10:07:06;;;;;;;16.35;9.35;;;;;;;20.82;22.11;94426.78;5089125;28;20036;-77
2023/03/06 10:09:42;;;;;;;11.33;9.20;;;;;;;20.97;20.93;94425.69;5105043;28;20149;-79
2023/03/06 10:12:20;;;;;;;12.63;9.68;;;;;;;20.58;21.87;94427.41;5104984;28;20032;-78
2023/03/06 10:14:56;;;;;;;15.65;10.07;;;;;;;20.19;22.42;94433.13;5085389;28;20027;-79
2023/03/06 10:17:24;;;;;;;15.45;9.75;;;;;;;20.05;22.00;94436.97;5105229;28;20027;-79
2023/03/06 10:19:51;;;;;;;15.10;9.68;;;;;;;19.95;21.79;94421.75;5102410;28;20035;-79
2023/03/06 10:22:35;;;;;;;16.90;11.25;;;;;;;19.42;22.54;94424.34;5103352;28;20072;-82
2023/03/06 10:25:27;;;;;;;14.35;11.07;;;;;;;19.03;23.02;94416.72;5103017;28;20030;-77
2023/03/06 10:27:58;;;;;;;17.30;10.77;;;;;;;18.43;23.61;94418.84;5102374;28;20026;-78
2023/03/06 10:30:32;;;;;;;17.42;10.40;;;;;;;18.35;23.78;94423.38;5104746;28;20537;-79
2023/03/06 10:33:18;;;;;;;16.10;10.40;;;;;;;17.68;24.28;94414.66;5101612;28;20508;-79
2023/03/06 10:35:52;;;;;;;13.88;10.02;;;;;;;17.11;25.08;94410.72;5107559;28;20024;-79
2023/03/06 10:38:18;;;;;;;13.57;9.43;;;;;;;16.94;25.70;94409.81;5108261;27;20106;-79
2023/03/06 10:40:49;;;;;;;16.63;9.93;;;;;;;17.34;25.15;94397.75;5105895;28;20126;-77
2023/03/06 10:43:15;;;;;;;14.35;9.70;;;;;;;17.76;24.98;94405.38;5108540;28;20039;-77
2023/03/06 10:45:51;;;;;;;13.77;9.38;;;;;;;17.49;24.83;94370.59;5107120;27;20116;-78
2023/03/06 10:48:22;;;;;;;17.73;11.10;;;;;;;17.44;25.44;94384.44;5106956;28;20049;-75
2023/03/06 10:50:48;;;;;;;18.17;10.13;;;;;;;17.32;25.47;94388.38;5105512;28;20031;-77
2023/03/06 10:53:23;;;;;;;18.95;11.38;;;;;;;17.28;25.63;94385.09;5089529;28;20019;-79
2023/03/06 10:55:52;;;;;;;16.60;10.40;;;;;;;17.82;25.33;94385.19;5108187;28;20375;-79
2023/03/06 10:58:18;;;;;;;20.10;12.18;;;;;;;17.81;24.45;94383.69;5105368;28;20023;-78
2023/03/06 11:00:44;;;;;;;18.67;12.13;;;;;;;17.11;25.70;94371.06;5106628;28;20114;-79
2023/03/06 11:03:21;;;;;;;20.02;10.52;;;;;;;16.90;25.99;94367.63;5105652;28;20123;-79
2023/03/06 11:06:02;;;;;;;12.05;8.77;;;;;;;17.13;25.41;94363.75;5106043;28;20039;-79
2023/03/06 11:08:28;;;;;;;17.05;10.18;;;;;;;16.85;26.02;94357.97;5106180;28;20016;-79
2023/03/06 11:10:57;;;;;;;16.10;9.98;;;;;;;19.35;23.67;94367.09;5088291;28;20020;-79
2023/03/06 11:13:24;;;;;;;17.25;10.30;;;;;;;18.52;23.62;94362.19;5097026;28;20028;-79
2023/03/06 11:16:03;;;;;;;15.65;9.68;;;;;;;17.84;24.26;94341.75;5088461;28;20028;-81
2023/03/06 11:18:33;;;;;;;17.60;9.80;;;;;;;19.09;22.94;94349.88;5088868;28;20028;-78
2023/03/06 11:21:05;;;;;;;15.38;9.65;;;;;;;20.73;21.59;94345.34;5105141;28;20568;-79
2023/03/06 11:23:45;;;;;;;15.70;10.23;;;;;;;20.19;22.38;94345.88;5088545;28;20027;-83
2023/03/06 11:26:23;;;;;;;13.35;8.65;;;;;;;19.79;22.36;94343.22;5089083;28;20598;-79
2023/03/06 11:29:05;;;;;;;12.45;8.57;;;;;;;19.18;23.13;94330.13;5087263;28;20024;-79